createdAt,value
2018-04-26T00:00:29.019Z,1.03
2018-04-26T00:02:55.572Z,0.90
2018-04-26T00:05:22.831Z,1.10
2018-04-26T00:07:49.373Z,1.30
2018-04-26T00:10:16.605Z,1.10
2018-04-26T00:12:43.140Z,1.10
2018-04-26T00:15:09.699Z,1.10
2018-04-26T00:17:37.052Z,1.00
2018-04-26T00:20:04.316Z,0.83
2018-04-26T00:22:30.830Z,1.20
2018-04-26T00:24:57.361Z,1.00
2018-04-26T00:27:23.887Z,1.33
2018-04-26T00:29:50.373Z,1.10
2018-04-26T00:32:16.927Z,1.27
2018-04-26T00:34:43.483Z,1.40
2018-04-26T00:37:09.976Z,1.20
2018-04-26T00:39:37.265Z,1.30
2018-04-26T00:42:03.793Z,1.37
2018-04-26T00:44:30.296Z,1.67
2018-04-26T00:46:57.585Z,1.37
2018-04-26T00:49:24.834Z,2.17
2018-04-26T00:52:00.499Z,2.30
2018-04-26T00:54:27.014Z,1.90
2018-04-26T00:56:53.526Z,2.10
2018-04-26T00:59:20.835Z,1.83
2018-04-26T01:01:47.322Z,1.90
2018-04-26T01:04:13.890Z,1.37
2018-04-26T01:06:40.464Z,1.80
2018-04-26T01:09:06.975Z,1.50
2018-04-26T01:11:33.582Z,1.63
2018-04-26T01:14:00.069Z,1.50
2018-04-26T01:16:26.629Z,1.90
2018-04-26T01:18:53.159Z,1.87
2018-04-26T01:21:19.647Z,1.77
2018-04-26T01:23:46.151Z,1.90
2018-04-26T01:26:13.401Z,2.20
2018-04-26T01:28:40.707Z,2.07
2018-04-26T01:31:07.188Z,2.10
2018-04-26T01:33:34.437Z,2.17
2018-04-26T01:36:00.940Z,1.97
2018-04-26T01:38:27.500Z,2.57
2018-04-26T01:40:55.644Z,2.03
2018-04-26T01:43:22.156Z,2.80
2018-04-26T01:45:48.770Z,2.40
2018-04-26T01:48:17.179Z,2.10
2018-04-26T01:50:43.946Z,2.20
2018-04-26T01:53:10.601Z,2.53
2018-04-26T01:55:37.247Z,1.93
2018-04-26T01:58:04.000Z,2.30
2018-04-26T02:00:30.741Z,2.00
2018-04-26T02:02:58.166Z,2.40
2018-04-26T02:05:24.886Z,2.83
2018-04-26T02:07:51.514Z,2.80
2018-04-26T02:10:18.207Z,2.20
2018-04-26T02:12:45.682Z,2.47
2018-04-26T02:15:12.351Z,2.53
2018-04-26T02:17:39.099Z,2.57
2018-04-26T02:20:05.738Z,2.60
2018-04-26T02:22:32.512Z,2.67
2018-04-26T02:24:59.943Z,3.00
2018-04-26T02:27:26.585Z,2.10
2018-04-26T02:29:53.278Z,2.40
2018-04-26T02:32:20.665Z,2.20
2018-04-26T02:34:47.302Z,2.17
2018-04-26T02:37:13.947Z,1.87
2018-04-26T02:39:40.584Z,2.07
2018-04-26T02:42:07.206Z,2.80
2018-04-26T02:44:34.619Z,1.60
2018-04-26T02:47:01.228Z,2.30
2018-04-26T02:49:27.835Z,1.83
2018-04-26T02:51:54.521Z,2.23
2018-04-26T02:54:21.165Z,1.50
2018-04-26T02:56:47.912Z,2.27
2018-04-26T02:59:14.539Z,2.00
2018-04-26T03:01:41.171Z,1.87
2018-04-26T03:04:07.963Z,1.73
2018-04-26T03:06:35.333Z,2.13
2018-04-26T03:09:06.671Z,2.20
2018-04-26T03:11:33.370Z,1.70
2018-04-26T03:14:00.029Z,1.73
2018-04-26T03:16:27.416Z,2.23
2018-04-26T03:18:54.129Z,2.13
2018-04-26T03:21:21.604Z,1.80
2018-04-26T03:23:49.026Z,2.00
2018-04-26T03:26:15.774Z,2.10
2018-04-26T03:28:42.427Z,2.10
2018-04-26T03:31:09.217Z,1.80
2018-04-26T03:33:36.831Z,2.00
2018-04-26T03:36:03.661Z,2.20
2018-04-26T03:38:31.451Z,2.13
2018-04-26T03:40:58.799Z,2.10
2018-04-26T03:43:30.320Z,1.93
2018-04-26T03:45:56.972Z,2.30
2018-04-26T03:48:23.663Z,2.13
2018-04-26T03:50:50.368Z,2.23
2018-04-26T03:53:37.458Z,2.07
2018-04-26T03:56:04.118Z,1.80
2018-04-26T03:58:30.829Z,2.20
2018-04-26T04:01:09.695Z,2.23
2018-04-26T04:03:56.519Z,2.20
2018-04-26T04:06:23.901Z,2.10
2018-04-26T04:08:54.482Z,2.90
2018-04-26T04:11:21.113Z,2.80
2018-04-26T04:13:56.001Z,2.17
2018-04-26T04:16:22.663Z,2.10
2018-04-26T04:18:49.345Z,2.40
2018-04-26T04:21:16.764Z,2.60
2018-04-26T04:23:49.268Z,1.93
2018-04-26T04:26:39.573Z,2.13
2018-04-26T04:29:18.400Z,2.60
2018-04-26T04:31:49.713Z,2.70
2018-04-26T04:34:20.261Z,3.20
2018-04-26T04:36:59.237Z,2.03
2018-04-26T04:39:26.611Z,3.17
2018-04-26T04:41:53.268Z,2.93
2018-04-26T04:44:21.023Z,2.67
2018-04-26T04:46:47.724Z,3.70
2018-04-26T04:49:14.327Z,2.67
2018-04-26T04:51:41.004Z,3.20
2018-04-26T04:54:07.702Z,3.33
2018-04-26T04:56:34.330Z,3.17
2018-04-26T04:59:00.988Z,3.27
2018-04-26T05:01:27.640Z,2.90
2018-04-26T05:03:54.287Z,2.53
2018-04-26T05:06:20.984Z,2.77
2018-04-26T05:08:47.614Z,3.60
2018-04-26T05:11:14.317Z,2.70
2018-04-26T05:13:41.771Z,3.30
2018-04-26T05:16:09.237Z,3.13
2018-04-26T05:18:35.961Z,4.10
2018-04-26T05:21:03.389Z,3.07
2018-04-26T05:23:30.027Z,3.83
2018-04-26T05:25:56.929Z,2.67
2018-04-26T05:28:23.586Z,3.10
2018-04-26T05:30:50.495Z,3.03
2018-04-26T05:33:17.253Z,3.33
2018-04-26T05:35:44.093Z,3.20
2018-04-26T05:38:10.756Z,3.33
2018-04-26T05:40:41.401Z,2.97
2018-04-26T05:43:08.787Z,4.03
2018-04-26T05:45:35.428Z,4.47
2018-04-26T05:48:02.101Z,3.33
2018-04-26T05:50:28.773Z,3.60
2018-04-26T05:52:55.482Z,3.07
2018-04-26T05:55:22.085Z,3.67
2018-04-26T05:57:48.806Z,3.40
2018-04-26T06:00:15.442Z,3.20
2018-04-26T06:02:42.100Z,2.47
2018-04-26T06:05:08.757Z,3.00
2018-04-26T06:07:35.720Z,2.80
2018-04-26T06:10:02.409Z,3.00
2018-04-26T06:12:29.071Z,3.17
2018-04-26T06:14:56.488Z,2.90
2018-04-26T06:17:23.157Z,2.43
2018-04-26T06:19:49.817Z,2.00
2018-04-26T06:22:16.545Z,2.83
2018-04-26T06:24:43.187Z,2.87
2018-04-26T06:27:09.857Z,2.23
2018-04-26T06:29:36.678Z,2.70
2018-04-26T06:32:04.030Z,2.53
2018-04-26T06:34:30.689Z,2.27
2018-04-26T06:36:57.399Z,2.50
2018-04-26T06:39:24.765Z,2.27
2018-04-26T06:41:51.349Z,2.23
2018-04-26T06:44:18.688Z,2.47
2018-04-26T06:46:46.100Z,1.47
2018-04-26T06:49:12.693Z,1.73
2018-04-26T06:51:39.359Z,2.27
2018-04-26T06:54:06.078Z,2.20
2018-04-26T06:56:32.754Z,1.60
2018-04-26T06:58:59.394Z,1.70
2018-04-26T07:01:26.049Z,1.73
2018-04-26T07:03:52.768Z,1.43
2018-04-26T07:06:19.416Z,1.70
2018-04-26T07:08:46.716Z,1.50
2018-04-26T07:11:13.457Z,1.30
2018-04-26T07:13:41.113Z,2.00
2018-04-26T07:16:07.783Z,1.57
2018-04-26T07:18:34.410Z,1.67
2018-04-26T07:21:01.093Z,1.40
2018-04-26T07:23:27.863Z,1.40
2018-04-26T07:25:55.290Z,1.47
2018-04-26T07:28:21.939Z,1.57
2018-04-26T07:30:48.574Z,1.70
2018-04-26T07:33:15.234Z,1.73
2018-04-26T07:35:41.889Z,1.50
2018-04-26T07:38:09.294Z,1.60
2018-04-26T07:40:35.995Z,1.63
2018-04-26T07:43:03.421Z,1.53
2018-04-26T07:45:30.160Z,2.20
2018-04-26T07:47:56.812Z,1.80
2018-04-26T07:50:24.499Z,1.87
2018-04-26T07:52:51.887Z,1.67
2018-04-26T07:55:18.525Z,2.00
2018-04-26T07:57:45.164Z,2.07
2018-04-26T08:00:11.876Z,3.30
2018-04-26T08:02:39.261Z,2.63
2018-04-26T08:05:05.906Z,1.17
2018-04-26T08:07:32.549Z,1.40
2018-04-26T08:10:00.032Z,1.23
2018-04-26T08:12:26.693Z,1.77
2018-04-26T08:14:53.422Z,1.67
2018-04-26T08:17:20.804Z,1.90
2018-04-26T08:19:48.243Z,1.83
2018-04-26T08:22:15.674Z,1.23
2018-04-26T08:24:42.398Z,1.60
2018-04-26T08:27:09.071Z,1.43
2018-04-26T08:29:35.701Z,1.50
2018-04-26T08:32:02.452Z,1.87
2018-04-26T08:34:29.222Z,1.30
2018-04-26T08:36:56.717Z,1.30
2018-04-26T08:39:24.134Z,1.20
2018-04-26T08:41:51.598Z,1.57
2018-04-26T08:44:19.005Z,1.40
2018-04-26T08:46:45.646Z,1.40
2018-04-26T08:49:12.305Z,1.60
2018-04-26T08:51:38.913Z,1.30
2018-04-26T08:54:05.606Z,1.43
2018-04-26T08:56:33.007Z,1.53
2018-04-26T08:58:59.658Z,1.50
2018-04-26T09:01:26.325Z,1.70
2018-04-26T09:03:52.970Z,1.50
2018-04-26T09:06:20.337Z,1.43
2018-04-26T09:08:47.779Z,1.30
2018-04-26T09:11:14.540Z,1.33
2018-04-26T09:13:41.335Z,1.40
2018-04-26T09:16:08.010Z,1.33
2018-04-26T09:18:35.545Z,1.00
2018-04-26T09:21:02.323Z,1.53
2018-04-26T09:23:29.665Z,1.30
2018-04-26T09:25:56.393Z,1.70
2018-04-26T09:28:24.560Z,1.57
2018-04-26T09:30:51.233Z,1.53
2018-04-26T09:33:18.694Z,1.47
2018-04-26T09:35:46.060Z,2.00
2018-04-26T09:38:12.689Z,1.97
2018-04-26T09:40:40.146Z,1.53
2018-04-26T09:43:07.569Z,2.13
2018-04-26T09:45:34.349Z,1.63
2018-04-26T09:48:01.878Z,1.90
2018-04-26T09:50:28.544Z,1.70
2018-04-26T09:52:55.966Z,1.50
2018-04-26T09:55:22.566Z,1.80
2018-04-26T09:57:49.210Z,1.67
2018-04-26T10:00:22.069Z,1.50
2018-04-26T10:02:49.517Z,1.53
2018-04-26T10:05:16.915Z,1.40
2018-04-26T10:07:43.607Z,1.50
2018-04-26T10:10:10.258Z,1.57
2018-04-26T10:12:36.955Z,1.30
2018-04-26T10:15:03.689Z,1.60
2018-04-26T10:17:30.249Z,1.50
2018-04-26T10:19:56.869Z,1.40
2018-04-26T10:22:23.529Z,1.20
2018-04-26T10:24:50.165Z,1.50
2018-04-26T10:27:16.778Z,1.60
2018-04-26T10:29:43.508Z,1.53
2018-04-26T10:32:10.147Z,1.60
2018-04-26T10:34:36.846Z,1.17
2018-04-26T10:37:04.312Z,1.40
2018-04-26T10:39:31.745Z,1.80
2018-04-26T10:41:58.414Z,1.70
2018-04-26T10:44:25.959Z,1.20
2018-04-26T10:46:53.305Z,1.30
2018-04-26T10:49:19.948Z,1.47
2018-04-26T10:51:46.705Z,1.60
2018-04-26T10:54:13.405Z,1.33
2018-04-26T10:56:40.053Z,1.30
2018-04-26T10:59:06.710Z,1.50
2018-04-26T11:01:34.191Z,1.50
2018-04-26T11:04:00.865Z,1.40
2018-04-26T11:06:27.512Z,1.43
2018-04-26T11:08:54.961Z,1.80
2018-04-26T11:11:21.674Z,2.87
2018-04-26T11:13:48.463Z,2.70
2018-04-26T11:16:16.684Z,1.93
2018-04-26T11:18:44.154Z,1.53
2018-04-26T11:21:10.838Z,1.10
2018-04-26T11:23:37.598Z,1.80
2018-04-26T11:26:05.049Z,2.93
2018-04-26T11:28:35.749Z,3.73
2018-04-26T11:31:02.367Z,3.60
2018-04-26T11:33:29.049Z,1.30
2018-04-26T11:35:55.803Z,1.17
2018-04-26T11:38:22.390Z,1.47
2018-04-26T11:40:49.007Z,1.20
2018-04-26T11:43:16.414Z,0.97
2018-04-26T11:45:43.131Z,1.33
2018-04-26T11:48:09.805Z,1.20
2018-04-26T11:50:36.486Z,1.50
2018-04-26T11:53:04.013Z,1.40
2018-04-26T11:55:31.458Z,1.27
2018-04-26T11:57:58.145Z,1.20
2018-04-26T12:00:24.821Z,1.00
2018-04-26T12:02:51.495Z,1.17
2018-04-26T12:05:18.151Z,1.17
2018-04-26T12:07:45.581Z,1.23
2018-04-26T12:10:12.329Z,1.20
2018-04-26T12:12:39.718Z,1.07
2018-04-26T12:15:07.096Z,1.10
2018-04-26T12:17:33.789Z,1.30
2018-04-26T12:20:00.571Z,1.13
2018-04-26T12:22:27.205Z,1.20
2018-04-26T12:24:53.820Z,0.80
2018-04-26T12:27:21.259Z,1.10
2018-04-26T12:29:47.905Z,1.13
2018-04-26T12:32:14.637Z,1.10
2018-04-26T12:34:41.389Z,1.30
2018-04-26T12:37:08.027Z,1.20
2018-04-26T12:39:34.802Z,1.60
2018-04-26T12:42:01.572Z,1.73
2018-04-26T12:44:32.329Z,1.20
2018-04-26T12:46:59.067Z,1.50
2018-04-26T12:49:25.776Z,0.90
2018-04-26T12:51:52.406Z,1.30
2018-04-26T12:54:19.070Z,1.10
2018-04-26T12:56:45.780Z,1.53
2018-04-26T12:59:13.221Z,0.90
2018-04-26T13:01:39.855Z,0.90
2018-04-26T13:04:06.485Z,1.03
2018-04-26T13:06:33.288Z,1.50
2018-04-26T13:08:59.996Z,1.10
2018-04-26T13:11:26.674Z,1.10
2018-04-26T13:13:53.365Z,0.93
2018-04-26T13:16:20.022Z,0.93
2018-04-26T13:18:46.723Z,1.50
2018-04-26T13:21:13.487Z,1.10
2018-04-26T13:23:40.050Z,0.70
2018-04-26T13:26:06.788Z,0.70
2018-04-26T13:28:33.492Z,0.73
2018-04-26T13:31:00.898Z,1.13
2018-04-26T13:33:27.545Z,1.10
2018-04-26T13:35:54.359Z,1.30
2018-04-26T13:38:21.762Z,1.27
2018-04-26T13:40:48.397Z,1.33
2018-04-26T13:43:15.032Z,1.17
2018-04-26T13:45:41.723Z,1.17
2018-04-26T13:48:09.186Z,0.80
2018-04-26T13:50:35.889Z,1.20
2018-04-26T13:53:02.706Z,1.10
2018-04-26T13:55:29.337Z,1.00
2018-04-26T13:57:55.977Z,0.90
2018-04-26T14:00:22.676Z,0.70
2018-04-26T14:02:49.434Z,1.00
2018-04-26T14:05:16.090Z,1.00
2018-04-26T14:07:42.746Z,1.37
2018-04-26T14:10:09.579Z,0.80
2018-04-26T14:12:36.361Z,0.90
2018-04-26T14:15:05.280Z,1.33
2018-04-26T14:17:32.776Z,1.00
2018-04-26T14:19:59.452Z,0.97
2018-04-26T14:22:26.217Z,1.53
2018-04-26T14:24:53.888Z,0.80
2018-04-26T14:27:20.524Z,1.13
2018-04-26T14:29:47.973Z,1.33
2018-04-26T14:32:14.612Z,0.87
2018-04-26T14:34:50.149Z,1.07
2018-04-26T14:37:16.951Z,0.70
2018-04-26T14:39:43.586Z,0.80
2018-04-26T14:42:10.288Z,0.80
2018-04-26T14:44:38.662Z,0.80
2018-04-26T14:47:05.266Z,0.77
2018-04-26T14:49:31.971Z,0.80
2018-04-26T14:51:58.643Z,0.90
2018-04-26T14:54:25.376Z,1.23
2018-04-26T14:56:52.719Z,0.80
2018-04-26T14:59:19.539Z,0.93
2018-04-26T15:01:46.176Z,0.60
2018-04-26T15:04:13.166Z,0.80
2018-04-26T15:06:41.890Z,0.90
2018-04-26T15:09:09.292Z,0.90
2018-04-26T15:11:36.012Z,1.00
2018-04-26T15:14:03.390Z,0.70
2018-04-26T15:16:30.047Z,0.73
2018-04-26T15:19:19.423Z,0.87
2018-04-26T15:21:46.109Z,0.80
2018-04-26T15:24:13.492Z,0.93
2018-04-26T15:26:40.182Z,0.70
2018-04-26T15:29:06.848Z,0.90
2018-04-26T15:31:34.204Z,0.80
2018-04-26T15:34:01.614Z,0.70
2018-04-26T15:36:28.270Z,0.70
2018-04-26T15:38:55.681Z,0.80
2018-04-26T15:41:23.410Z,0.90
2018-04-26T15:43:50.138Z,0.83
2018-04-26T15:46:16.774Z,1.00
2018-04-26T15:48:43.469Z,1.10
2018-04-26T15:51:10.193Z,2.17
2018-04-26T15:53:49.917Z,2.03
2018-04-26T15:56:29.605Z,0.90
2018-04-26T16:05:27.186Z,1.80
2018-04-26T16:08:12.953Z,3.73
2018-04-26T16:10:58.011Z,1.50
2018-04-26T16:13:43.220Z,1.33
2018-04-26T16:16:29.069Z,2.63
2018-04-26T16:19:11.723Z,2.13
2018-04-26T16:25:35.504Z,2.50
2018-04-26T16:28:20.699Z,2.13
2018-04-26T16:34:11.892Z,1.63
2018-04-26T16:36:50.982Z,0.93
2018-04-26T16:39:17.576Z,2.97
2018-04-26T16:41:44.205Z,6.20
2018-04-26T16:44:10.823Z,1.60
2018-04-26T16:46:37.450Z,0.80
2018-04-26T16:49:04.103Z,0.83
2018-04-26T16:51:30.692Z,1.40
2018-04-26T16:53:57.505Z,1.30
2018-04-26T16:56:24.168Z,3.20
2018-04-26T16:58:50.869Z,4.50
2018-04-26T17:01:17.414Z,6.77
2018-04-26T17:03:44.108Z,1.40
2018-04-26T17:06:10.908Z,0.90
2018-04-26T17:08:37.638Z,1.00
2018-04-26T17:11:04.286Z,1.03
2018-04-26T17:13:31.679Z,0.87
2018-04-26T17:15:58.293Z,0.70
2018-04-26T17:18:24.933Z,0.90
2018-04-26T17:20:51.696Z,0.90
2018-04-26T17:23:20.590Z,0.70
2018-04-26T17:25:49.172Z,0.80
2018-04-26T17:28:15.923Z,0.77
2018-04-26T17:30:42.522Z,0.80
2018-04-26T17:33:09.118Z,0.60
2018-04-26T17:35:35.740Z,0.60
2018-04-26T17:38:03.102Z,1.10
2018-04-26T17:40:29.729Z,0.70
2018-04-26T17:42:57.142Z,0.80
2018-04-26T17:45:23.776Z,0.63
2018-04-26T17:47:50.384Z,0.97
2018-04-26T17:50:17.011Z,0.70
2018-04-26T17:52:48.457Z,0.60
2018-04-26T17:55:15.074Z,0.40
2018-04-26T17:57:41.698Z,0.80
2018-04-26T18:00:08.305Z,0.70
2018-04-26T18:02:34.855Z,0.83
2018-04-26T18:05:01.424Z,1.40
2018-04-26T18:07:29.203Z,1.20
2018-04-26T18:09:56.649Z,0.70
2018-04-26T18:12:25.973Z,2.80
2018-04-26T18:14:54.303Z,2.57
2018-04-26T18:17:20.860Z,1.73
2018-04-26T18:19:47.437Z,0.83
2018-04-26T18:22:14.116Z,0.70
2018-04-26T18:24:42.741Z,0.50
2018-04-26T18:27:10.068Z,0.67
2018-04-26T18:29:36.602Z,0.57
2018-04-26T18:32:03.142Z,0.50
2018-04-26T18:34:29.777Z,0.43
2018-04-26T18:36:56.300Z,0.70
2018-04-26T18:39:22.844Z,1.00
2018-04-26T18:41:49.488Z,0.60
2018-04-26T18:44:16.041Z,0.47
2018-04-26T18:46:42.618Z,0.53
2018-04-26T18:49:09.874Z,0.40
2018-04-26T18:51:36.488Z,0.50
2018-04-26T18:54:03.024Z,0.70
2018-04-26T18:56:29.579Z,0.40
2018-04-26T18:58:56.917Z,0.53
2018-04-26T19:01:23.497Z,0.40
2018-04-26T19:03:54.008Z,0.30
2018-04-26T19:06:21.300Z,0.40
2018-04-26T19:08:47.942Z,0.60
2018-04-26T19:11:14.525Z,0.37
2018-04-26T19:13:41.832Z,0.63
2018-04-26T19:16:08.483Z,0.70
2018-04-26T19:18:36.299Z,0.60
2018-04-26T19:21:03.938Z,0.83
2018-04-26T19:23:30.573Z,0.80
2018-04-26T19:25:57.935Z,0.67
2018-04-26T19:28:25.248Z,0.57
2018-04-26T19:30:51.781Z,0.60
2018-04-26T19:33:18.470Z,0.50
2018-04-26T19:35:45.036Z,0.80
2018-04-26T19:38:11.570Z,1.30
2018-04-26T19:40:38.179Z,1.60
2018-04-26T19:43:05.528Z,1.83
2018-04-26T19:45:32.047Z,2.27
2018-04-26T19:47:58.671Z,2.47
2018-04-26T19:50:25.231Z,2.43
2018-04-26T19:52:51.781Z,2.10
2018-04-26T19:55:18.342Z,1.90
2018-04-26T19:57:44.973Z,2.10
2018-04-26T20:00:11.600Z,1.17
2018-04-26T20:02:38.137Z,1.20
2018-04-26T20:05:05.458Z,1.00
2018-04-26T20:07:31.989Z,0.70
2018-04-26T20:09:58.669Z,0.90
2018-04-26T20:12:25.956Z,0.83
2018-04-26T20:14:52.626Z,0.73
2018-04-26T20:17:19.154Z,0.60
2018-04-26T20:19:45.725Z,0.80
2018-04-26T20:22:12.274Z,1.00
2018-04-26T20:24:38.816Z,0.83
2018-04-26T20:27:05.331Z,1.20
2018-04-26T20:29:31.876Z,0.93
2018-04-26T20:31:58.413Z,1.00
2018-04-26T20:34:25.781Z,0.90
2018-04-26T20:36:52.325Z,1.30
2018-04-26T20:39:19.620Z,1.17
2018-04-26T20:41:54.305Z,1.13
2018-04-26T20:44:33.797Z,1.20
2018-04-26T20:47:00.888Z,0.97
2018-04-26T20:49:28.341Z,1.07
2018-04-26T20:51:55.607Z,2.03
2018-04-26T20:54:22.191Z,1.70
2018-04-26T20:56:48.728Z,1.00
2018-04-26T20:59:15.287Z,1.47
2018-04-26T21:01:41.823Z,1.00
2018-04-26T21:04:12.421Z,1.00
2018-04-26T21:06:38.992Z,0.80
2018-04-26T21:09:05.530Z,0.80
2018-04-26T21:11:32.108Z,1.10
2018-04-26T21:13:58.683Z,0.60
2018-04-26T21:16:25.268Z,0.40
2018-04-26T21:18:52.537Z,0.83
2018-04-26T21:21:19.845Z,0.73
2018-04-26T21:23:46.393Z,0.50
2018-04-26T21:26:13.833Z,0.60
2018-04-26T21:28:40.472Z,0.50
2018-04-26T21:31:07.004Z,0.57
2018-04-26T21:33:33.807Z,0.50
2018-04-26T21:36:01.106Z,0.60
2018-04-26T21:38:27.617Z,0.60
2018-04-26T21:40:54.161Z,0.73
2018-04-26T21:43:26.586Z,0.70
2018-04-26T21:45:53.295Z,0.60
2018-04-26T21:48:19.930Z,0.60
2018-04-26T21:50:54.548Z,0.60
2018-04-26T21:53:27.244Z,0.63
2018-04-26T21:56:00.837Z,0.87
2018-04-26T21:58:33.314Z,0.70
2018-04-26T22:01:06.091Z,0.50
2018-04-26T22:03:38.510Z,0.90
2018-04-26T22:06:08.184Z,1.07
2018-04-26T22:08:34.731Z,0.40
2018-04-26T22:11:01.302Z,0.33
2018-04-26T22:13:28.589Z,0.30
2018-04-26T22:15:55.964Z,0.43
2018-04-26T22:18:30.545Z,0.67
2018-04-26T22:21:02.680Z,1.00
2018-04-26T22:23:29.213Z,0.50
2018-04-26T22:25:55.821Z,0.53
2018-04-26T22:31:36.865Z,0.40
2018-04-26T22:34:05.350Z,0.70
2018-04-26T22:36:32.660Z,0.70
2018-04-26T22:38:59.229Z,0.50
2018-04-26T22:41:25.769Z,0.50
2018-04-26T22:43:52.409Z,0.53
2018-04-26T22:46:18.921Z,0.43
2018-04-26T22:48:45.493Z,0.53
2018-04-26T22:51:12.089Z,0.40
2018-04-26T22:53:46.717Z,0.50
2018-04-26T22:56:35.926Z,0.60
2018-04-26T22:59:03.281Z,0.50
2018-04-26T23:01:29.815Z,0.50
2018-04-26T23:03:56.500Z,0.60
2018-04-26T23:09:20.250Z,0.50
2018-04-26T23:11:46.747Z,0.60
2018-04-26T23:14:13.292Z,0.43
2018-04-26T23:16:39.785Z,0.50
2018-04-26T23:19:09.081Z,0.57
2018-04-26T23:21:36.389Z,0.30
2018-04-26T23:24:08.070Z,0.33
2018-04-26T23:26:40.524Z,0.40
2018-04-26T23:29:07.097Z,1.80
2018-04-26T23:31:34.377Z,1.70
2018-04-26T23:34:00.920Z,1.13
2018-04-26T23:36:27.431Z,0.80
2018-04-26T23:38:53.993Z,0.70
2018-04-26T23:41:20.646Z,0.80
2018-04-26T23:43:47.288Z,0.40
2018-04-26T23:46:13.802Z,0.40
2018-04-26T23:48:40.385Z,0.50
2018-04-26T23:51:06.931Z,0.60
2018-04-26T23:53:35.261Z,0.77
2018-04-26T23:56:01.784Z,2.40
2018-04-26T23:58:28.389Z,2.30
